createdAt,value
2022-11-08T00:01:33.197Z,10.51
2022-11-08T00:04:19.096Z,9.25
2022-11-08T00:07:04.852Z,10.37
2022-11-08T00:09:50.687Z,9.90
2022-11-08T00:12:36.488Z,10.04
2022-11-08T00:15:22.372Z,10.59
2022-11-08T00:18:08.595Z,10.96
2022-11-08T00:20:54.422Z,11.23
2022-11-08T00:23:40.291Z,11.57
2022-11-08T00:26:26.120Z,11.52
2022-11-08T00:29:12.028Z,11.50
2022-11-08T00:31:58.172Z,11.59
2022-11-08T00:34:46.088Z,12.10
2022-11-08T00:37:31.918Z,11.52
2022-11-08T00:40:17.920Z,10.98
2022-11-08T00:43:03.707Z,11.75
2022-11-08T00:45:49.659Z,12.14
2022-11-08T00:48:35.568Z,12.41
2022-11-08T00:51:21.312Z,12.28
2022-11-08T00:54:07.219Z,12.30
2022-11-08T00:56:53.136Z,12.52
2022-11-08T00:59:39.088Z,12.15
2022-11-08T01:02:25.135Z,11.80
2022-11-08T01:05:11.176Z,12.04
2022-11-08T01:07:57.140Z,12.14
2022-11-08T01:10:43.004Z,12.29
2022-11-08T01:13:28.817Z,12.48
2022-11-08T01:16:14.726Z,12.60
2022-11-08T01:19:00.509Z,12.63
2022-11-08T01:21:46.442Z,12.49
2022-11-08T01:24:32.460Z,12.69
2022-11-08T01:27:18.374Z,12.85
2022-11-08T01:30:04.226Z,12.96
2022-11-08T01:32:50.033Z,13.02
2022-11-08T01:35:35.935Z,12.95
2022-11-08T01:38:21.895Z,12.41
2022-11-08T01:41:07.785Z,12.56
2022-11-08T01:43:53.707Z,12.79
2022-11-08T01:46:39.609Z,12.84
2022-11-08T01:49:25.382Z,11.84
2022-11-08T01:52:11.310Z,10.95
2022-11-08T01:54:56.985Z,10.37
2022-11-08T01:57:42.924Z,9.72
2022-11-08T02:00:28.755Z,9.31
2022-11-08T02:03:16.554Z,9.07
2022-11-08T02:06:02.524Z,8.89
2022-11-08T02:08:48.399Z,8.64
2022-11-08T02:11:34.186Z,8.84
2022-11-08T02:14:22.088Z,9.10
2022-11-08T02:17:08.176Z,9.34
2022-11-08T02:19:53.816Z,8.46
2022-11-08T02:22:39.712Z,8.30
2022-11-08T02:25:25.396Z,8.75
2022-11-08T02:28:11.236Z,8.45
2022-11-08T02:30:57.200Z,8.08
2022-11-08T02:33:43.055Z,8.45
2022-11-08T02:36:28.911Z,8.63
2022-11-08T02:39:16.823Z,8.81
2022-11-08T02:42:02.674Z,8.43
2022-11-08T02:44:48.651Z,8.99
2022-11-08T02:47:34.589Z,9.55
2022-11-08T02:50:20.426Z,8.98
2022-11-08T02:53:06.498Z,8.23
2022-11-08T02:55:52.271Z,8.56
2022-11-08T02:58:38.342Z,9.31
2022-11-08T03:01:24.379Z,10.04
2022-11-08T03:04:10.554Z,10.63
2022-11-08T03:06:56.450Z,10.70
2022-11-08T03:09:42.353Z,11.13
2022-11-08T03:12:28.304Z,11.68
2022-11-08T03:15:14.192Z,11.79
2022-11-08T03:18:00.112Z,12.29
2022-11-08T03:20:46.077Z,12.53
2022-11-08T03:23:31.998Z,12.16
2022-11-08T03:26:17.836Z,10.57
2022-11-08T03:29:03.620Z,9.24
2022-11-08T03:31:49.390Z,8.87
2022-11-08T03:34:35.348Z,9.10
2022-11-08T03:37:21.265Z,10.35
2022-11-08T03:40:07.141Z,10.75
2022-11-08T03:42:53.044Z,9.90
2022-11-08T03:45:38.847Z,8.75
2022-11-08T03:48:24.592Z,8.80
2022-11-08T03:51:10.597Z,8.32
2022-11-08T03:53:56.437Z,8.82
2022-11-08T03:56:42.223Z,9.66
2022-11-08T03:59:28.164Z,10.09
2022-11-08T04:02:14.066Z,10.70
2022-11-08T04:05:00.158Z,10.71
2022-11-08T04:07:46.080Z,10.58
2022-11-08T04:10:32.009Z,9.09
2022-11-08T04:13:38.008Z,9.78
2022-11-08T04:16:29.992Z,9.52
2022-11-08T04:19:15.788Z,8.80
2022-11-08T04:22:01.812Z,8.27
2022-11-08T04:24:47.773Z,8.09
2022-11-08T04:27:33.648Z,7.95
2022-11-08T04:30:19.478Z,7.71
2022-11-08T04:33:05.420Z,7.57
2022-11-08T04:35:51.308Z,7.55
2022-11-08T04:38:37.237Z,7.63
2022-11-08T04:41:23.237Z,7.56
2022-11-08T04:44:08.999Z,7.46
2022-11-08T04:46:54.953Z,7.30
2022-11-08T04:49:40.812Z,7.25
2022-11-08T04:52:26.698Z,7.20
2022-11-08T04:55:12.633Z,7.05
2022-11-08T04:57:58.431Z,7.41
2022-11-08T05:00:44.224Z,7.75
2022-11-08T05:03:30.099Z,8.00
2022-11-08T05:06:15.890Z,8.46
2022-11-08T05:09:01.806Z,9.20
2022-11-08T05:11:47.655Z,9.39
2022-11-08T05:14:33.592Z,9.58
2022-11-08T05:17:19.290Z,10.02
2022-11-08T05:20:05.095Z,10.53
2022-11-08T05:22:51.100Z,10.61
2022-11-08T05:25:36.864Z,10.89
2022-11-08T05:28:22.731Z,11.11
2022-11-08T05:31:08.710Z,11.47
2022-11-08T05:33:54.557Z,11.32
2022-11-08T05:36:40.597Z,10.99
2022-11-08T05:39:30.952Z,11.54
2022-11-08T05:42:18.276Z,11.73
2022-11-08T05:45:09.470Z,11.87
2022-11-08T05:47:55.468Z,12.02
2022-11-08T05:50:41.447Z,12.13
2022-11-08T05:53:27.144Z,11.84
2022-11-08T05:56:13.058Z,11.37
2022-11-08T05:58:58.867Z,11.21
2022-11-08T06:01:44.801Z,11.18
2022-11-08T06:04:30.724Z,11.14
2022-11-08T06:07:16.476Z,10.94
2022-11-08T06:10:02.465Z,10.88
2022-11-08T06:12:48.918Z,11.01
2022-11-08T06:15:34.691Z,10.66
2022-11-08T06:18:20.709Z,10.26
2022-11-08T06:21:06.541Z,10.25
2022-11-08T06:23:52.376Z,10.32
2022-11-08T06:26:38.352Z,10.28
2022-11-08T06:29:24.216Z,10.07
2022-11-08T06:32:10.036Z,10.26
2022-11-08T06:34:56.016Z,10.38
2022-11-08T06:37:41.938Z,10.21
2022-11-08T06:40:27.743Z,10.24
2022-11-08T06:43:19.111Z,10.46
2022-11-08T06:46:05.592Z,10.77
2022-11-08T06:48:51.420Z,10.85
2022-11-08T06:51:37.450Z,11.10
2022-11-08T06:54:27.295Z,10.76
2022-11-08T06:57:13.087Z,10.76
2022-11-08T06:59:58.969Z,10.63
2022-11-08T07:02:44.889Z,10.65
2022-11-08T07:05:33.161Z,10.19
2022-11-08T07:08:23.637Z,10.38
2022-11-08T07:11:10.025Z,9.91
2022-11-08T07:13:55.783Z,9.87
2022-11-08T07:16:41.641Z,10.08
2022-11-08T07:19:27.726Z,9.93
2022-11-08T07:22:13.563Z,10.21
2022-11-08T07:24:59.558Z,9.96
2022-11-08T07:27:45.505Z,9.91
2022-11-08T07:30:31.328Z,10.34
2022-11-08T07:33:17.612Z,10.24
2022-11-08T07:36:03.995Z,10.10
2022-11-08T07:38:50.050Z,10.27
2022-11-08T07:41:36.038Z,10.18
2022-11-08T07:44:21.881Z,10.07
2022-11-08T07:47:07.804Z,10.16
2022-11-08T07:49:53.818Z,10.32
2022-11-08T07:52:39.754Z,10.30
2022-11-08T07:55:25.701Z,10.59
2022-11-08T07:58:11.446Z,10.57
2022-11-08T08:00:57.462Z,10.51
2022-11-08T08:03:43.320Z,10.83
2022-11-08T08:06:29.133Z,11.08
2022-11-08T08:09:15.097Z,11.25
2022-11-08T08:12:00.911Z,11.20
2022-11-08T08:14:46.745Z,11.51
2022-11-08T08:17:32.799Z,11.38
2022-11-08T08:20:20.614Z,11.42
2022-11-08T08:23:06.350Z,11.59
2022-11-08T08:25:52.187Z,12.00
2022-11-08T08:28:38.041Z,11.41
2022-11-08T08:31:24.069Z,11.75
2022-11-08T08:34:09.913Z,11.77
2022-11-08T08:36:55.853Z,11.56
2022-11-08T08:39:41.794Z,11.45
2022-11-08T08:42:27.559Z,11.77
2022-11-08T08:45:15.155Z,11.72
2022-11-08T08:48:01.682Z,11.62
2022-11-08T08:50:47.691Z,11.84
2022-11-08T08:53:33.538Z,11.56
2022-11-08T08:56:19.547Z,11.65
2022-11-08T09:02:11.443Z,11.99
2022-11-08T09:04:59.380Z,11.74
2022-11-08T09:07:45.161Z,11.80
2022-11-08T09:10:31.085Z,11.61
2022-11-08T09:13:17.347Z,11.55
2022-11-08T09:16:03.722Z,11.72
2022-11-08T09:18:50.214Z,11.81
2022-11-08T09:21:36.176Z,11.88
2022-11-08T09:24:22.060Z,11.80
2022-11-08T09:27:08.017Z,11.40
2022-11-08T09:29:53.876Z,11.69
2022-11-08T09:32:59.756Z,11.40
2022-11-08T09:35:45.941Z,11.50
2022-11-08T09:38:31.931Z,11.57
2022-11-08T09:41:20.790Z,11.57
2022-11-08T09:44:06.692Z,11.90
2022-11-08T09:46:52.693Z,11.54
2022-11-08T09:49:38.500Z,11.75
2022-11-08T09:52:24.430Z,11.88
2022-11-08T09:55:10.429Z,11.92
2022-11-08T09:57:56.131Z,12.04
2022-11-08T10:00:42.081Z,12.39
2022-11-08T10:03:27.962Z,12.44
2022-11-08T10:06:13.753Z,12.87
2022-11-08T10:08:59.767Z,12.99
2022-11-08T10:11:45.589Z,12.90
2022-11-08T10:14:31.562Z,13.01
2022-11-08T10:17:17.596Z,12.99
2022-11-08T10:20:06.840Z,13.29
2022-11-08T10:22:53.270Z,13.31
2022-11-08T10:25:39.117Z,13.27
2022-11-08T10:28:24.908Z,13.64
2022-11-08T10:31:10.899Z,13.78
2022-11-08T10:33:56.780Z,13.82
2022-11-08T10:36:42.580Z,13.65
2022-11-08T10:39:28.569Z,13.55
2022-11-08T10:42:14.378Z,13.62
2022-11-08T10:45:00.405Z,13.71
2022-11-08T10:47:46.359Z,13.84
2022-11-08T10:50:32.081Z,13.96
2022-11-08T10:53:18.252Z,13.75
2022-11-08T10:56:04.317Z,14.08
2022-11-08T10:58:50.286Z,13.90
2022-11-08T11:01:36.141Z,14.36
2022-11-08T11:04:22.192Z,14.17
2022-11-08T11:07:08.199Z,14.27
2022-11-08T11:09:54.208Z,14.67
2022-11-08T11:12:40.143Z,14.69
2022-11-08T11:15:26.017Z,14.58
2022-11-08T11:18:11.890Z,14.67
2022-11-08T11:20:57.766Z,14.33
2022-11-08T11:23:43.699Z,14.00
2022-11-08T11:26:29.544Z,14.54
2022-11-08T11:29:15.516Z,14.21
2022-11-08T11:32:01.364Z,14.65
2022-11-08T11:34:47.266Z,14.33
2022-11-08T11:37:33.293Z,14.08
2022-11-08T11:40:19.199Z,14.76
2022-11-08T11:43:05.072Z,14.89
2022-11-08T11:45:53.053Z,14.49
2022-11-08T11:48:38.969Z,14.43
2022-11-08T11:51:24.965Z,14.76
2022-11-08T11:54:10.895Z,14.84
2022-11-08T11:56:56.721Z,14.79
2022-11-08T11:59:42.677Z,15.09
2022-11-08T12:02:28.605Z,15.09
2022-11-08T12:05:14.572Z,15.26
2022-11-08T12:08:00.463Z,15.25
2022-11-08T12:10:46.220Z,15.29
2022-11-08T12:13:32.156Z,15.21
2022-11-08T12:16:18.067Z,15.24
2022-11-08T12:19:03.874Z,15.33
2022-11-08T12:21:49.814Z,15.31
2022-11-08T12:24:35.570Z,15.21
2022-11-08T12:27:21.425Z,15.14
2022-11-08T12:30:07.368Z,15.18
2022-11-08T12:32:53.072Z,15.28
2022-11-08T12:35:39.037Z,15.51
2022-11-08T12:38:24.793Z,15.85
2022-11-08T12:41:10.618Z,15.60
2022-11-08T12:43:56.562Z,15.98
2022-11-08T12:46:42.306Z,15.90
2022-11-08T12:49:28.183Z,16.17
2022-11-08T12:52:14.061Z,16.49
2022-11-08T12:54:59.771Z,16.39
2022-11-08T12:57:45.663Z,16.19
2022-11-08T13:00:31.516Z,16.37
2022-11-08T13:03:17.234Z,16.33
2022-11-08T13:06:03.174Z,16.59
2022-11-08T13:08:49.016Z,16.37
2022-11-08T13:11:34.972Z,15.98
2022-11-08T13:14:20.675Z,15.82
2022-11-08T13:17:06.458Z,15.60
2022-11-08T13:19:52.944Z,15.71
2022-11-08T13:22:38.775Z,15.62
2022-11-08T13:25:24.644Z,16.18
2022-11-08T13:28:10.627Z,16.04
2022-11-08T13:30:56.387Z,16.54
2022-11-08T13:33:42.342Z,16.04
2022-11-08T13:36:28.261Z,16.47
2022-11-08T13:39:14.113Z,16.09
2022-11-08T13:42:00.158Z,16.07
2022-11-08T13:44:46.017Z,15.62
2022-11-08T13:47:31.976Z,15.93
2022-11-08T13:50:17.943Z,16.02
2022-11-08T13:53:05.974Z,16.05
2022-11-08T13:55:51.976Z,16.60
2022-11-08T13:58:37.924Z,16.72
2022-11-08T14:01:25.886Z,16.72
2022-11-08T14:04:11.814Z,16.97
2022-11-08T14:06:57.766Z,16.95
2022-11-08T14:09:43.691Z,16.91
2022-11-08T14:12:29.702Z,16.60
2022-11-08T14:15:15.367Z,16.44
2022-11-08T14:18:01.261Z,16.21
2022-11-08T14:20:47.314Z,16.12
2022-11-08T14:23:34.270Z,16.14
2022-11-08T14:26:20.425Z,16.50
2022-11-08T14:29:06.879Z,16.28
2022-11-08T14:31:52.789Z,15.73
2022-11-08T14:34:38.596Z,15.69
2022-11-08T14:37:24.376Z,15.54
2022-11-08T14:40:10.296Z,15.74
2022-11-08T14:42:56.261Z,15.89
2022-11-08T14:45:42.070Z,15.90
2022-11-08T14:48:27.989Z,15.90
2022-11-08T14:51:14.201Z,15.79
2022-11-08T14:54:00.132Z,15.69
2022-11-08T14:56:46.117Z,15.83
2022-11-08T14:59:31.962Z,15.77
2022-11-08T15:02:17.897Z,15.85
2022-11-08T15:05:03.872Z,15.47
2022-11-08T15:07:49.611Z,15.85
2022-11-08T15:10:35.455Z,15.61
2022-11-08T15:13:21.458Z,15.30
2022-11-08T15:16:07.349Z,15.79
2022-11-08T15:18:53.279Z,15.58
2022-11-08T15:21:39.071Z,15.66
2022-11-08T15:24:25.050Z,15.54
2022-11-08T15:27:11.037Z,15.86
2022-11-08T15:29:56.979Z,15.90
2022-11-08T15:32:42.959Z,15.49
2022-11-08T15:35:28.784Z,15.91
2022-11-08T15:38:14.858Z,15.44
2022-11-08T15:41:01.080Z,15.46
2022-11-08T15:43:46.973Z,15.53
2022-11-08T15:46:32.845Z,15.48
2022-11-08T15:49:18.899Z,15.17
2022-11-08T15:52:04.808Z,15.16
2022-11-08T15:54:50.849Z,14.97
2022-11-08T15:57:36.629Z,14.70
2022-11-08T16:00:24.582Z,14.72
2022-11-08T16:03:10.602Z,15.35
2022-11-08T16:05:56.449Z,15.06
2022-11-08T16:08:42.359Z,14.99
2022-11-08T16:11:28.336Z,15.06
2022-11-08T16:14:14.087Z,14.70
2022-11-08T16:17:00.117Z,14.59
2022-11-08T16:19:45.906Z,14.86
2022-11-08T16:22:31.792Z,15.01
2022-11-08T16:25:22.750Z,14.83
2022-11-08T16:28:09.344Z,14.76
2022-11-08T16:30:55.349Z,14.83
2022-11-08T16:33:41.191Z,14.96
2022-11-08T16:36:27.105Z,14.64
2022-11-08T16:39:12.953Z,14.62
2022-11-08T16:41:58.944Z,14.99
2022-11-08T16:44:44.827Z,14.90
2022-11-08T16:47:30.564Z,15.06
2022-11-08T16:50:16.536Z,14.77
2022-11-08T16:53:02.288Z,14.74
2022-11-08T16:55:48.313Z,14.50
2022-11-08T16:58:34.313Z,15.02
2022-11-08T17:01:20.283Z,14.93
2022-11-08T17:04:06.052Z,14.31
2022-11-08T17:06:51.943Z,14.86
2022-11-08T17:09:37.817Z,14.80
2022-11-08T17:12:23.746Z,14.77
2022-11-08T17:15:09.737Z,14.76
2022-11-08T17:17:55.624Z,14.89
2022-11-08T17:20:41.556Z,14.91
2022-11-08T17:23:27.704Z,15.11
2022-11-08T17:26:13.717Z,14.77
2022-11-08T17:28:59.677Z,14.70
2022-11-08T17:31:45.539Z,14.48
2022-11-08T17:34:32.572Z,14.65
2022-11-08T17:37:18.343Z,14.93
2022-11-08T17:40:04.214Z,15.11
2022-11-08T17:42:50.045Z,15.13
2022-11-08T17:45:35.976Z,14.71
2022-11-08T17:48:21.812Z,14.64
2022-11-08T17:51:07.652Z,14.41
2022-11-08T17:53:54.152Z,14.93
2022-11-08T17:56:40.060Z,14.58
2022-11-08T17:59:25.818Z,14.63
2022-11-08T18:02:11.847Z,14.54
2022-11-08T18:04:57.776Z,14.80
2022-11-08T18:07:43.475Z,14.67
2022-11-08T18:10:29.494Z,14.57
2022-11-08T18:13:15.277Z,14.29
2022-11-08T18:16:01.232Z,14.59
2022-11-08T18:18:47.292Z,14.61
2022-11-08T18:21:33.556Z,14.56
2022-11-08T18:24:19.516Z,14.32
2022-11-08T18:27:05.295Z,14.57
2022-11-08T18:29:51.211Z,14.46
2022-11-08T18:32:37.114Z,14.85
2022-11-08T18:35:22.926Z,14.99
2022-11-08T18:38:08.978Z,14.98
2022-11-08T18:40:55.633Z,14.86
2022-11-08T18:43:41.440Z,14.99
2022-11-08T18:46:27.319Z,14.55
2022-11-08T18:49:13.233Z,14.78
2022-11-08T18:51:59.120Z,14.32
2022-11-08T18:54:44.929Z,14.34
2022-11-08T18:57:30.611Z,14.89
2022-11-08T19:00:16.419Z,14.63
2022-11-08T19:03:02.277Z,14.97
2022-11-08T19:05:48.060Z,14.73
2022-11-08T19:08:34.010Z,14.64
2022-11-08T19:11:19.871Z,14.49
2022-11-08T19:14:05.722Z,14.62
2022-11-08T19:16:51.796Z,14.72
2022-11-08T19:19:37.672Z,14.39
2022-11-08T19:22:23.648Z,14.22
2022-11-08T19:25:09.411Z,14.31
2022-11-08T19:27:55.291Z,14.38
2022-11-08T19:30:41.236Z,14.15
2022-11-08T19:33:28.963Z,14.08
2022-11-08T19:36:14.935Z,14.23
2022-11-08T19:39:00.800Z,14.33
2022-11-08T19:41:46.583Z,14.48
2022-11-08T19:44:32.424Z,14.75
2022-11-08T19:47:18.324Z,14.38
2022-11-08T19:50:04.141Z,14.60
2022-11-08T19:52:50.057Z,14.74
2022-11-08T19:55:35.927Z,14.27
2022-11-08T19:58:21.856Z,14.19
2022-11-08T20:01:07.819Z,14.02
2022-11-08T20:03:54.002Z,14.28
2022-11-08T20:06:40.014Z,14.30
2022-11-08T20:09:30.335Z,14.40
2022-11-08T20:12:16.682Z,14.18
2022-11-08T20:15:02.535Z,14.02
2022-11-08T20:17:48.367Z,13.88
2022-11-08T20:20:34.122Z,14.19
2022-11-08T20:23:19.915Z,14.33
2022-11-08T20:26:05.837Z,14.66
2022-11-08T20:28:56.378Z,14.71
2022-11-08T20:31:42.777Z,14.45
2022-11-08T20:34:29.753Z,14.60
2022-11-08T20:37:16.027Z,14.55
2022-11-08T20:40:01.808Z,14.45
2022-11-08T20:42:47.748Z,14.51
2022-11-08T20:45:33.562Z,14.05
2022-11-08T20:48:19.630Z,13.68
2022-11-08T20:51:05.716Z,14.01
2022-11-08T20:53:51.579Z,13.88
2022-11-08T20:56:37.493Z,13.96
2022-11-08T20:59:23.223Z,14.10
2022-11-08T21:02:09.208Z,14.20
2022-11-08T21:04:55.442Z,14.17
2022-11-08T21:10:47.719Z,14.45
2022-11-08T21:13:33.840Z,14.32
2022-11-08T21:16:29.995Z,14.99
2022-11-08T21:19:16.863Z,14.90
2022-11-08T21:22:02.768Z,14.75
2022-11-08T21:24:48.571Z,15.04
2022-11-08T21:27:34.597Z,14.28
2022-11-08T21:30:22.310Z,14.26
2022-11-08T21:33:08.196Z,14.39
2022-11-08T21:35:54.136Z,14.37
2022-11-08T21:38:39.966Z,14.61
2022-11-08T21:41:25.828Z,14.60
2022-11-08T21:44:11.619Z,14.81
2022-11-08T21:46:57.513Z,14.65
2022-11-08T21:49:43.348Z,14.70
2022-11-08T21:52:29.203Z,14.93
2022-11-08T21:55:15.138Z,14.66
2022-11-08T21:58:01.103Z,14.23
2022-11-08T22:00:46.886Z,14.41
2022-11-08T22:03:32.890Z,14.81
2022-11-08T22:06:18.666Z,14.47
2022-11-08T22:09:04.568Z,14.65
2022-11-08T22:11:50.486Z,14.49
2022-11-08T22:14:36.484Z,14.51
2022-11-08T22:17:22.382Z,14.27
2022-11-08T22:20:08.300Z,14.17
2022-11-08T22:22:54.158Z,14.02
2022-11-08T22:25:40.025Z,13.99
2022-11-08T22:28:25.742Z,14.09
2022-11-08T22:31:11.633Z,14.36
2022-11-08T22:33:57.494Z,14.69
2022-11-08T22:36:45.577Z,14.73
2022-11-08T22:39:31.931Z,14.33
2022-11-08T22:42:17.681Z,14.23
2022-11-08T22:45:03.451Z,14.22
2022-11-08T22:47:49.274Z,14.23
2022-11-08T22:50:35.109Z,14.28
2022-11-08T22:53:21.211Z,14.80
2022-11-08T22:56:11.302Z,14.51
2022-11-08T22:58:57.978Z,14.33
2022-11-08T23:01:43.790Z,14.49
2022-11-08T23:04:29.738Z,14.45
2022-11-08T23:07:15.604Z,14.39
2022-11-08T23:10:03.719Z,14.64
2022-11-08T23:12:49.762Z,14.38
2022-11-08T23:15:35.611Z,14.56
2022-11-08T23:18:21.406Z,14.60
2022-11-08T23:21:07.357Z,14.45
2022-11-08T23:23:53.332Z,14.68
2022-11-08T23:26:39.417Z,14.46
2022-11-08T23:29:25.245Z,14.65
2022-11-08T23:32:11.027Z,14.56
2022-11-08T23:34:56.857Z,14.45
2022-11-08T23:37:42.695Z,14.75
2022-11-08T23:40:28.583Z,14.33
2022-11-08T23:43:14.653Z,14.48
2022-11-08T23:46:00.387Z,14.04
2022-11-08T23:48:46.268Z,14.29
2022-11-08T23:51:32.082Z,14.65
2022-11-08T23:54:17.929Z,14.36
2022-11-08T23:57:03.834Z,14.52
2022-11-08T23:59:49.640Z,14.60
